Aviation Digital Data Service (ADDS)

Output produced by TAFs form (0123 UTC 23 July 2017)
found at http://www.aviationweather.gov/adds/tafs/
 
METAR text: RJTL 222232Z 20013G23KT 170V230 9999 SCT012 SCT180 BKN230 27/24 Q1007 RMK 4CU012 3AC180 A2976
Conditions at: RJTL (SHIMOFUSA (JMSDF, JP) observed 2232 UTC 22 July 2017
Temperature: 27.0°C (81°F)
Dewpoint: 24.0°C (75°F) [RH = 84%]
Pressure (altimeter): 29.73 inches Hg (1007.0 mb)
Winds: from the SSW (200 degrees) at 15 MPH (13 knots; 6.8 m/s)
gusting to 26 MPH (23 knots; 12.0 m/s)
Visibility: 6 or more miles (10+ km)
Ceiling: 23000 feet AGL
Clouds: scattered clouds at 1200 feet AGL
scattered clouds at 18000 feet AGL
broken clouds at 23000 feet AGL
Weather: no significant weather observed at this time